createdAt,value
2018-05-04T00:02:05.581Z,5.43
2018-05-04T00:04:32.502Z,4.80
2018-05-04T00:06:59.354Z,5.30
2018-05-04T00:09:26.279Z,4.87
2018-05-04T00:11:53.201Z,4.63
2018-05-04T00:14:20.069Z,4.37
2018-05-04T00:16:47.022Z,4.47
2018-05-04T00:19:13.945Z,4.93
2018-05-04T00:21:40.880Z,5.20
2018-05-04T00:24:07.745Z,4.33
2018-05-04T00:26:34.723Z,5.23
2018-05-04T00:29:01.594Z,4.20
2018-05-04T00:31:28.526Z,5.10
2018-05-04T00:33:55.450Z,4.83
2018-05-04T00:36:22.513Z,5.00
2018-05-04T00:38:49.383Z,4.47
2018-05-04T00:41:16.989Z,5.00
2018-05-04T00:43:43.908Z,4.60
2018-05-04T00:46:11.508Z,5.40
2018-05-04T00:48:38.365Z,4.30
2018-05-04T00:51:05.311Z,4.60
2018-05-04T00:53:32.269Z,5.30
2018-05-04T00:55:59.217Z,4.37
2018-05-04T00:58:26.137Z,4.80
2018-05-04T01:00:52.996Z,5.00
2018-05-04T01:03:19.915Z,4.90
2018-05-04T01:05:46.789Z,4.07
2018-05-04T01:08:13.728Z,4.57
2018-05-04T01:10:40.602Z,4.67
2018-05-04T01:13:07.459Z,5.07
2018-05-04T01:15:34.473Z,4.50
2018-05-04T01:18:01.374Z,5.23
2018-05-04T01:20:28.289Z,4.90
2018-05-04T01:22:55.944Z,5.03
2018-05-04T01:25:22.856Z,4.87
2018-05-04T01:27:49.733Z,5.10
2018-05-04T01:30:16.670Z,4.47
2018-05-04T01:32:43.525Z,5.70
2018-05-04T01:35:10.460Z,5.27
2018-05-04T01:37:37.373Z,4.67
2018-05-04T01:40:04.333Z,4.37
2018-05-04T01:42:31.186Z,4.70
2018-05-04T01:44:58.132Z,5.00
2018-05-04T01:47:25.072Z,4.60
2018-05-04T01:49:51.953Z,5.20
2018-05-04T01:52:19.577Z,5.27
2018-05-04T01:54:46.519Z,4.27
2018-05-04T01:57:13.382Z,4.80
2018-05-04T01:59:40.232Z,5.00
2018-05-04T02:02:07.205Z,4.70
2018-05-04T02:04:34.230Z,4.60
2018-05-04T02:07:01.183Z,4.90
2018-05-04T02:09:28.057Z,5.33
2018-05-04T02:11:54.987Z,5.03
2018-05-04T02:14:21.879Z,5.43
2018-05-04T02:16:48.743Z,4.23
2018-05-04T02:19:15.728Z,4.80
2018-05-04T02:21:42.649Z,4.90
2018-05-04T02:24:09.570Z,4.63
2018-05-04T02:26:36.424Z,5.83
2018-05-04T02:29:03.345Z,4.63
2018-05-04T02:31:30.264Z,4.70
2018-05-04T02:33:57.201Z,4.20
2018-05-04T02:36:24.057Z,4.73
2018-05-04T02:38:50.969Z,5.43
2018-05-04T02:41:17.845Z,4.60
2018-05-04T02:43:45.517Z,4.70
2018-05-04T02:46:12.389Z,4.53
2018-05-04T02:48:39.393Z,4.40
2018-05-04T02:51:06.240Z,5.23
2018-05-04T02:53:33.091Z,4.93
2018-05-04T02:56:00.019Z,4.50
2018-05-04T02:58:26.896Z,5.00
2018-05-04T03:00:53.755Z,3.93
2018-05-04T03:03:20.691Z,4.67
2018-05-04T03:05:47.625Z,4.47
2018-05-04T03:08:14.478Z,4.10
2018-05-04T03:10:41.400Z,3.97
2018-05-04T03:13:08.257Z,4.10
2018-05-04T03:15:35.198Z,4.67
2018-05-04T03:18:02.116Z,4.33
2018-05-04T03:20:29.121Z,4.37
2018-05-04T03:22:56.264Z,4.97
2018-05-04T03:25:23.141Z,4.50
2018-05-04T03:27:50.064Z,4.70
2018-05-04T03:30:16.936Z,4.50
2018-05-04T03:32:43.917Z,4.53
2018-05-04T03:35:10.786Z,4.97
2018-05-04T03:37:37.738Z,5.13
2018-05-04T03:40:04.636Z,4.93
2018-05-04T03:42:31.556Z,5.43
2018-05-04T03:44:58.423Z,5.13
2018-05-04T03:47:26.101Z,5.20
2018-05-04T03:49:53.782Z,4.63
2018-05-04T03:52:20.694Z,4.60
2018-05-04T03:54:47.554Z,4.80
2018-05-04T03:57:26.595Z,6.00
2018-05-04T04:00:05.594Z,4.77
2018-05-04T04:02:44.668Z,5.20
2018-05-04T04:05:11.609Z,5.30
2018-05-04T04:07:38.544Z,4.70
2018-05-04T04:10:05.473Z,4.30
2018-05-04T04:12:33.078Z,4.20
2018-05-04T04:15:00.035Z,4.07
2018-05-04T04:17:26.908Z,5.12
2018-05-04T04:19:53.842Z,5.07
2018-05-04T04:22:21.497Z,4.50
2018-05-04T04:24:48.407Z,5.07
2018-05-04T04:27:26.853Z,5.00
2018-05-04T04:29:54.775Z,5.13
2018-05-04T04:32:24.512Z,4.50
2018-05-04T04:34:51.406Z,5.60
2018-05-04T04:37:18.414Z,4.73
2018-05-04T04:39:57.614Z,4.77
2018-05-04T04:42:31.242Z,4.50
2018-05-04T04:45:00.557Z,4.43
2018-05-04T04:47:30.693Z,4.73
2018-05-04T04:49:58.137Z,4.00
2018-05-04T04:52:24.987Z,3.70
2018-05-04T04:54:51.937Z,4.70
2018-05-04T04:57:20.605Z,4.83
2018-05-04T04:59:51.255Z,4.73
2018-05-04T05:02:18.329Z,4.43
2018-05-04T05:04:47.707Z,4.07
2018-05-04T05:07:26.321Z,4.80
2018-05-04T05:09:58.708Z,4.40
2018-05-04T05:12:29.386Z,5.20
2018-05-04T05:15:04.197Z,4.40
2018-05-04T05:17:32.533Z,3.87
2018-05-04T05:20:10.410Z,3.73
2018-05-04T05:22:42.703Z,4.30
2018-05-04T05:25:09.629Z,4.83
2018-05-04T05:27:36.578Z,4.77
2018-05-04T05:30:03.441Z,3.67
2018-05-04T05:32:31.403Z,4.50
2018-05-04T05:34:58.430Z,4.40
2018-05-04T05:37:25.306Z,4.10
2018-05-04T05:39:52.449Z,6.80
2018-05-04T05:42:31.522Z,6.90
2018-05-04T05:44:58.976Z,5.80
2018-05-04T05:47:25.896Z,6.20
2018-05-04T05:50:01.328Z,5.17
2018-05-04T05:52:28.191Z,6.20
2018-05-04T05:54:56.705Z,4.17
2018-05-04T05:57:24.907Z,5.67
2018-05-04T05:59:53.673Z,4.67
2018-05-04T06:02:20.619Z,5.93
2018-05-04T06:04:47.607Z,5.10
2018-05-04T06:07:14.469Z,4.60
2018-05-04T06:09:41.387Z,5.50
2018-05-04T06:12:16.651Z,4.10
2018-05-04T06:14:44.493Z,4.63
2018-05-04T06:17:14.359Z,3.83
2018-05-04T06:19:41.233Z,3.80
2018-05-04T06:22:08.963Z,4.33
2018-05-04T06:24:35.897Z,4.57
2018-05-04T06:27:02.801Z,3.70
2018-05-04T06:29:30.404Z,3.60
2018-05-04T06:31:57.336Z,4.07
2018-05-04T06:34:24.202Z,3.60
2018-05-04T06:36:51.075Z,4.07
2018-05-04T06:39:17.990Z,3.40
2018-05-04T06:41:44.850Z,3.80
2018-05-04T06:44:11.764Z,4.47
2018-05-04T06:46:38.637Z,4.60
2018-05-04T06:49:05.488Z,4.60
2018-05-04T06:51:32.809Z,4.47
2018-05-04T06:53:59.666Z,3.70
2018-05-04T06:56:26.525Z,5.00
2018-05-04T06:58:53.436Z,3.57
2018-05-04T07:01:20.470Z,3.67
2018-05-04T07:03:49.493Z,4.27
2018-05-04T07:06:16.349Z,4.03
2018-05-04T07:08:43.259Z,4.40
2018-05-04T07:11:10.125Z,4.50
2018-05-04T07:13:37.043Z,4.30
2018-05-04T07:16:03.993Z,3.73
2018-05-04T07:18:30.908Z,4.80
2018-05-04T07:20:57.817Z,4.93
2018-05-04T07:23:24.676Z,4.00
2018-05-04T07:25:51.584Z,4.23
2018-05-04T07:28:18.433Z,4.40
2018-05-04T07:30:45.442Z,3.80
2018-05-04T07:33:12.307Z,4.00
2018-05-04T07:35:39.186Z,4.40
2018-05-04T07:38:06.984Z,3.47
2018-05-04T07:40:33.878Z,3.23
2018-05-04T07:43:00.749Z,3.83
2018-05-04T07:45:27.699Z,4.03
2018-05-04T07:47:54.621Z,3.53
2018-05-04T07:50:21.499Z,4.77
2018-05-04T07:52:48.438Z,4.87
2018-05-04T07:55:15.378Z,4.60
2018-05-04T07:57:42.307Z,4.67
2018-05-04T08:00:09.153Z,4.90
2018-05-04T08:02:36.002Z,5.03
2018-05-04T08:05:03.035Z,3.87
2018-05-04T08:07:29.894Z,3.80
2018-05-04T08:09:56.833Z,4.73
2018-05-04T08:12:23.704Z,4.40
2018-05-04T08:14:50.717Z,4.30
2018-05-04T08:17:17.565Z,4.47
2018-05-04T08:19:44.469Z,4.13
2018-05-04T08:22:11.313Z,4.20
2018-05-04T08:24:38.998Z,4.40
2018-05-04T08:27:12.235Z,3.50
2018-05-04T08:29:39.658Z,4.43
2018-05-04T08:32:07.260Z,4.50
2018-05-04T08:34:34.377Z,4.17
2018-05-04T08:37:01.301Z,4.50
2018-05-04T08:39:28.960Z,4.80
2018-05-04T08:41:59.800Z,4.53
2018-05-04T08:44:26.844Z,4.60
2018-05-04T08:46:55.190Z,4.10
2018-05-04T08:49:23.400Z,4.97
2018-05-04T08:51:51.061Z,5.97
2018-05-04T08:54:18.724Z,4.83
2018-05-04T08:56:45.637Z,4.50
2018-05-04T08:59:12.486Z,4.90
2018-05-04T09:01:39.414Z,4.80
2018-05-04T09:04:06.337Z,4.30
2018-05-04T09:06:33.985Z,4.50
2018-05-04T09:09:00.911Z,4.63
2018-05-04T09:11:28.518Z,4.43
2018-05-04T09:13:55.497Z,4.77
2018-05-04T09:16:22.422Z,4.77
2018-05-04T09:18:49.441Z,5.57
2018-05-04T09:21:17.257Z,4.50
2018-05-04T09:23:45.782Z,4.97
2018-05-04T09:26:13.574Z,4.87
2018-05-04T09:28:40.435Z,4.67
2018-05-04T09:31:07.382Z,5.50
2018-05-04T09:33:35.229Z,5.30
2018-05-04T09:36:02.189Z,5.30
2018-05-04T09:38:29.118Z,4.70
2018-05-04T09:40:55.981Z,5.10
2018-05-04T09:43:23.879Z,5.20
2018-05-04T09:45:50.750Z,4.83
2018-05-04T09:48:18.441Z,5.27
2018-05-04T09:50:45.296Z,5.30
2018-05-04T09:53:14.384Z,4.33
2018-05-04T09:55:41.309Z,4.63
2018-05-04T09:58:08.193Z,4.83
2018-05-04T10:00:35.461Z,5.53
2018-05-04T10:03:03.190Z,5.07
2018-05-04T10:05:30.108Z,4.90
2018-05-04T10:07:57.713Z,4.80
2018-05-04T10:10:24.628Z,5.77
2018-05-04T10:12:51.500Z,5.87
2018-05-04T10:15:18.420Z,5.13
2018-05-04T10:17:45.355Z,4.80
2018-05-04T10:20:12.970Z,4.87
2018-05-04T10:22:39.907Z,4.70
2018-05-04T10:25:06.784Z,4.30
2018-05-04T10:27:33.705Z,4.47
2018-05-04T10:30:00.578Z,5.50
2018-05-04T10:32:27.513Z,5.43
2018-05-04T10:34:54.434Z,5.50
2018-05-04T10:37:21.288Z,5.03
2018-05-04T10:39:48.241Z,5.47
2018-05-04T10:42:15.187Z,4.30
2018-05-04T10:44:42.217Z,5.13
2018-05-04T10:47:09.120Z,4.60
2018-05-04T10:49:36.782Z,5.30
2018-05-04T10:52:04.447Z,5.07
2018-05-04T10:54:32.077Z,5.77
2018-05-04T10:56:59.365Z,5.13
2018-05-04T10:59:26.250Z,4.10
2018-05-04T11:01:53.213Z,4.27
2018-05-04T11:04:20.074Z,5.30
2018-05-04T11:06:47.141Z,5.70
2018-05-04T11:09:14.929Z,5.20
2018-05-04T11:11:41.860Z,4.70
2018-05-04T11:14:09.769Z,5.07
2018-05-04T11:16:36.647Z,5.30
2018-05-04T11:19:11.099Z,5.23
2018-05-04T11:21:39.597Z,5.30
2018-05-04T11:24:06.520Z,4.80
2018-05-04T11:26:34.134Z,5.80
2018-05-04T11:29:01.092Z,5.27
2018-05-04T11:31:27.968Z,5.67
2018-05-04T11:33:55.616Z,5.93
2018-05-04T11:36:22.563Z,5.53
2018-05-04T11:38:49.450Z,5.10
2018-05-04T11:41:22.318Z,5.00
2018-05-04T11:43:49.925Z,5.20
2018-05-04T11:46:16.859Z,5.80
2018-05-04T11:48:43.732Z,5.57
2018-05-04T11:51:10.632Z,4.80
2018-05-04T11:53:37.633Z,5.43
2018-05-04T11:56:04.562Z,6.60
2018-05-04T11:58:31.730Z,5.63
2018-05-04T12:00:58.601Z,6.10
2018-05-04T12:03:26.473Z,5.20
2018-05-04T12:05:55.270Z,5.70
2018-05-04T12:08:22.213Z,6.10
2018-05-04T12:10:49.148Z,6.33
2018-05-04T12:13:17.032Z,5.30
2018-05-04T12:15:46.106Z,5.47
2018-05-04T12:18:13.785Z,5.93
2018-05-04T12:20:40.886Z,5.83
2018-05-04T12:23:07.822Z,5.60
2018-05-04T12:25:36.528Z,6.23
2018-05-04T12:28:03.583Z,5.87
2018-05-04T12:30:30.517Z,4.80
2018-05-04T12:33:01.127Z,5.17
2018-05-04T12:35:28.967Z,6.23
2018-05-04T12:37:55.905Z,6.47
2018-05-04T12:40:23.557Z,4.57
2018-05-04T12:42:51.220Z,5.70
2018-05-04T12:45:18.887Z,5.10
2018-05-04T12:47:51.424Z,5.03
2018-05-04T12:50:18.421Z,5.23
2018-05-04T12:52:46.375Z,5.10
2018-05-04T12:55:13.386Z,5.63
2018-05-04T12:57:40.254Z,5.83
2018-05-04T13:00:07.278Z,4.70
2018-05-04T13:02:34.140Z,5.70
2018-05-04T13:05:01.138Z,5.23
2018-05-04T13:07:28.095Z,4.80
2018-05-04T13:09:54.970Z,4.97
2018-05-04T13:12:21.830Z,4.57
2018-05-04T13:14:48.742Z,9.67
2018-05-04T13:17:15.677Z,5.90
2018-05-04T13:19:42.673Z,4.63
2018-05-04T13:22:09.705Z,4.80
2018-05-04T13:24:36.614Z,4.90
2018-05-04T13:27:07.552Z,5.07
2018-05-04T13:29:37.534Z,5.50
2018-05-04T13:32:12.222Z,5.30
2018-05-04T13:34:48.059Z,5.47
2018-05-04T13:37:21.272Z,5.83
2018-05-04T13:40:01.839Z,4.23
2018-05-04T13:42:28.856Z,5.10
2018-05-04T13:45:05.203Z,4.47
2018-05-04T13:47:32.574Z,4.10
2018-05-04T13:52:41.801Z,5.00
2018-05-04T13:55:19.176Z,5.20
2018-05-04T13:57:46.616Z,5.20
2018-05-04T14:00:13.548Z,4.00
2018-05-04T14:02:46.638Z,4.77
2018-05-04T14:05:25.162Z,4.57
2018-05-04T14:08:01.005Z,4.73
2018-05-04T14:10:34.096Z,4.40
2018-05-04T14:13:06.404Z,3.93
2018-05-04T14:15:34.094Z,4.97
2018-05-04T14:18:01.396Z,4.20
2018-05-04T14:20:28.952Z,3.80
2018-05-04T14:22:56.557Z,4.57
2018-05-04T14:28:06.940Z,4.20
2018-05-04T14:30:33.862Z,3.97
2018-05-04T14:33:02.339Z,3.80
2018-05-04T14:35:30.360Z,4.23
2018-05-04T14:37:59.808Z,3.90
2018-05-04T14:40:33.385Z,4.90
2018-05-04T14:43:00.311Z,4.83
2018-05-04T14:45:27.971Z,4.40
2018-05-04T14:47:55.906Z,3.90
2018-05-04T14:50:28.445Z,4.23
2018-05-04T14:52:57.717Z,4.50
2018-05-04T14:55:24.678Z,4.60
2018-05-04T14:57:52.297Z,3.60
2018-05-04T15:00:20.001Z,3.47
2018-05-04T15:02:47.011Z,3.60
2018-05-04T15:05:14.300Z,3.50
2018-05-04T15:07:42.292Z,4.50
2018-05-04T15:10:10.803Z,4.13
2018-05-04T15:12:39.253Z,3.40
2018-05-04T15:15:06.264Z,3.30
2018-05-04T15:17:33.256Z,3.80
2018-05-04T15:20:00.193Z,3.80
2018-05-04T15:22:27.049Z,4.53
2018-05-04T15:24:54.047Z,3.80
2018-05-04T15:27:22.223Z,4.43
2018-05-04T15:29:51.405Z,3.70
2018-05-04T15:32:18.275Z,3.30
2018-05-04T15:34:50.875Z,3.57
2018-05-04T15:37:19.266Z,3.40
2018-05-04T15:39:46.211Z,4.10
2018-05-04T15:42:13.073Z,4.10
2018-05-04T15:44:39.997Z,3.97
2018-05-04T15:47:06.874Z,3.37
2018-05-04T15:49:33.718Z,4.80
2018-05-04T15:52:05.483Z,3.90
2018-05-04T15:54:32.337Z,3.83
2018-05-04T15:57:00.359Z,4.13
2018-05-04T15:59:27.795Z,3.57
2018-05-04T16:01:54.834Z,4.20
2018-05-04T16:04:22.789Z,4.43
2018-05-04T16:06:50.498Z,3.90
2018-05-04T16:09:20.313Z,4.10
2018-05-04T16:11:49.688Z,4.20
2018-05-04T16:14:19.461Z,3.50
2018-05-04T16:16:48.945Z,3.60
2018-05-04T16:19:19.227Z,3.77
2018-05-04T16:21:56.634Z,4.47
2018-05-04T16:24:35.890Z,4.00
2018-05-04T16:27:09.755Z,3.97
2018-05-04T16:29:42.702Z,3.47
2018-05-04T16:32:10.845Z,4.20
2018-05-04T16:34:47.292Z,4.17
2018-05-04T16:37:27.752Z,4.00
2018-05-04T16:39:58.441Z,4.17
2018-05-04T16:42:32.014Z,5.73
2018-05-04T16:45:00.093Z,4.10
2018-05-04T16:47:30.151Z,3.83
2018-05-04T16:49:57.509Z,5.57
2018-05-04T16:52:32.750Z,5.67
2018-05-04T16:55:12.859Z,4.37
2018-05-04T16:57:51.804Z,4.17
2018-05-04T17:00:19.714Z,6.13
2018-05-04T17:02:46.632Z,4.40
2018-05-04T17:05:19.062Z,5.27
2018-05-04T17:07:46.508Z,4.03
2018-05-04T17:10:14.106Z,5.30
2018-05-04T17:12:45.522Z,4.97
2018-05-04T17:15:12.518Z,5.20
2018-05-04T17:17:39.441Z,4.63
2018-05-04T17:20:06.361Z,5.40
2018-05-04T17:22:33.320Z,4.83
2018-05-04T17:25:00.246Z,4.80
2018-05-04T17:27:27.905Z,4.50
2018-05-04T17:29:54.895Z,4.50
2018-05-04T17:32:21.880Z,6.30
2018-05-04T17:34:48.763Z,5.13
2018-05-04T17:37:15.733Z,4.70
2018-05-04T17:39:42.661Z,4.33
2018-05-04T17:42:09.520Z,4.50
2018-05-04T17:44:36.458Z,5.90
2018-05-04T17:47:03.497Z,6.17
2018-05-04T17:49:32.889Z,5.60
2018-05-04T17:52:03.088Z,7.70
2018-05-04T17:54:32.433Z,5.80
2018-05-04T17:57:02.035Z,7.20
2018-05-04T17:59:31.443Z,5.07
2018-05-04T18:02:02.945Z,5.73
2018-05-04T18:04:32.769Z,6.70
2018-05-04T18:07:01.634Z,5.93
2018-05-04T18:09:28.521Z,7.80
2018-05-04T18:11:58.710Z,8.07
2018-05-04T18:14:27.686Z,7.30
2018-05-04T18:16:57.371Z,4.90
2018-05-04T18:19:24.288Z,5.80
2018-05-04T18:21:54.296Z,5.67
2018-05-04T18:24:23.582Z,6.07
2018-05-04T18:26:52.724Z,5.80
2018-05-04T18:29:19.585Z,6.43
2018-05-04T18:31:48.799Z,6.33
2018-05-04T18:34:18.160Z,6.80
2018-05-04T18:36:48.230Z,7.90
2018-05-04T18:39:17.713Z,5.63
2018-05-04T18:41:47.137Z,5.73
2018-05-04T18:44:16.921Z,6.90
2018-05-04T18:46:46.934Z,6.23
2018-05-04T18:49:15.974Z,6.87
2018-05-04T18:51:46.158Z,6.37
2018-05-04T18:54:15.749Z,6.60
2018-05-04T18:56:45.714Z,6.70
2018-05-04T18:59:16.125Z,6.30
2018-05-04T19:01:43.065Z,6.03
2018-05-04T19:04:09.985Z,7.20
2018-05-04T19:06:39.115Z,6.00
2018-05-04T19:09:05.982Z,7.00
2018-05-04T19:11:32.937Z,8.13
2018-05-04T19:13:59.869Z,6.50
2018-05-04T19:16:26.720Z,7.53
2018-05-04T19:18:53.641Z,6.37
2018-05-04T19:21:20.545Z,7.00
2018-05-04T19:23:47.518Z,7.10
2018-05-04T19:26:14.530Z,6.27
2018-05-04T19:28:41.454Z,6.60
2018-05-04T19:31:08.329Z,6.37
2018-05-04T19:33:35.254Z,6.70
2018-05-04T19:36:02.117Z,6.20
2018-05-04T19:38:31.348Z,6.80
2018-05-04T19:41:00.129Z,12.47
2018-05-04T19:43:29.686Z,6.60
2018-05-04T19:45:59.743Z,6.50
2018-05-04T19:48:26.693Z,6.13
2018-05-04T19:50:56.426Z,5.80
2018-05-04T19:53:23.837Z,6.10
2018-05-04T19:55:53.838Z,6.53
2018-05-04T19:58:20.789Z,6.63
2018-05-04T20:00:47.748Z,6.60
2018-05-04T20:03:14.704Z,6.30
2018-05-04T20:05:41.589Z,5.87
2018-05-04T20:08:08.565Z,6.40
2018-05-04T20:10:35.461Z,6.37
2018-05-04T20:13:03.185Z,5.63
2018-05-04T20:15:30.117Z,7.50
2018-05-04T20:17:56.969Z,5.70
2018-05-04T20:20:23.912Z,6.13
2018-05-04T20:22:50.764Z,6.10
2018-05-04T20:25:17.680Z,6.50
2018-05-04T20:27:44.597Z,5.50
2018-05-04T20:30:11.530Z,6.83
2018-05-04T20:32:39.161Z,6.20
2018-05-04T20:35:06.026Z,5.77
2018-05-04T20:37:33.370Z,5.33
2018-05-04T20:40:00.413Z,5.70
2018-05-04T20:42:30.471Z,6.87
2018-05-04T20:44:57.565Z,5.90
2018-05-04T20:47:24.485Z,5.23
2018-05-04T20:49:51.643Z,5.23
2018-05-04T20:52:18.568Z,5.80
2018-05-04T20:54:45.743Z,6.13
2018-05-04T20:57:12.601Z,5.03
2018-05-04T20:59:39.530Z,6.13
2018-05-04T21:02:06.776Z,5.13
2018-05-04T21:04:33.708Z,5.20
2018-05-04T21:07:00.626Z,6.43
2018-05-04T21:09:27.682Z,5.63
2018-05-04T21:11:55.285Z,6.07
2018-05-04T21:14:22.202Z,6.30
2018-05-04T21:16:49.821Z,6.60
2018-05-04T21:19:16.817Z,7.10
2018-05-04T21:21:43.685Z,7.40
2018-05-04T21:24:10.554Z,7.80
2018-05-04T21:26:39.393Z,7.90
2018-05-04T21:29:06.562Z,8.80
2018-05-04T21:31:33.544Z,8.97
2018-05-04T21:34:00.402Z,8.70
2018-05-04T21:36:27.366Z,6.90
2018-05-04T21:38:55.117Z,6.67
2018-05-04T21:41:22.046Z,7.40
2018-05-04T21:43:48.901Z,7.33
2018-05-04T21:46:15.757Z,7.90
2018-05-04T21:48:42.694Z,8.80
2018-05-04T21:51:09.620Z,7.40
2018-05-04T21:53:36.477Z,7.60
2018-05-04T21:56:03.517Z,9.37
2018-05-04T21:58:30.445Z,7.30
2018-05-04T22:00:57.315Z,7.80
2018-05-04T22:03:24.168Z,6.70
2018-05-04T22:05:53.398Z,6.80
2018-05-04T22:08:20.996Z,6.63
2018-05-04T22:10:47.941Z,5.70
2018-05-04T22:13:16.768Z,6.20
2018-05-04T22:15:55.387Z,5.43
2018-05-04T22:18:26.067Z,5.63
2018-05-04T22:20:53.295Z,5.73
2018-05-04T22:23:20.964Z,6.07
2018-05-04T22:25:48.024Z,5.17
2018-05-04T22:28:14.954Z,5.33
2018-05-04T22:30:41.965Z,6.03
2018-05-04T22:33:08.903Z,6.03
2018-05-04T22:35:35.757Z,5.57
2018-05-04T22:38:02.669Z,5.50
2018-05-04T22:40:29.687Z,5.30
2018-05-04T22:42:56.610Z,6.10
2018-05-04T22:45:23.596Z,5.60
2018-05-04T22:47:50.470Z,6.63
2018-05-04T22:50:17.427Z,6.13
2018-05-04T22:52:44.366Z,5.80
2018-05-04T22:55:11.224Z,6.00
2018-05-04T22:57:38.087Z,5.83
2018-05-04T23:00:05.128Z,5.80
2018-05-04T23:02:31.997Z,5.33
2018-05-04T23:04:58.922Z,5.50
2018-05-04T23:07:25.799Z,5.27
2018-05-04T23:09:52.789Z,6.03
2018-05-04T23:12:19.637Z,5.17
2018-05-04T23:14:46.493Z,5.63
2018-05-04T23:17:13.421Z,6.40
2018-05-04T23:19:40.369Z,5.87
2018-05-04T23:22:07.221Z,5.37
2018-05-04T23:24:34.062Z,5.73
2018-05-04T23:27:00.977Z,5.00
2018-05-04T23:29:27.938Z,5.20
2018-05-04T23:31:54.860Z,5.57
2018-05-04T23:34:21.832Z,5.07
2018-05-04T23:36:48.742Z,5.17
2018-05-04T23:39:16.406Z,4.93
2018-05-04T23:41:43.329Z,5.00
2018-05-04T23:44:10.169Z,6.10
2018-05-04T23:46:37.157Z,4.10
2018-05-04T23:49:04.062Z,4.97
2018-05-04T23:51:31.005Z,6.03
2018-05-04T23:53:57.856Z,4.90
2018-05-04T23:56:24.777Z,5.03
2018-05-04T23:58:51.772Z,5.70
